createdAt,value
2023-03-27T00:04:21.994Z,54.07
2023-03-27T00:09:23.675Z,50.19
2023-03-27T00:14:25.313Z,52.89
2023-03-27T00:19:26.903Z,49.52
2023-03-27T00:24:28.507Z,53.80
2023-03-27T00:29:30.107Z,54.39
2023-03-27T00:34:31.679Z,54.97
2023-03-27T00:39:33.299Z,53.57
2023-03-27T00:44:35.520Z,52.46
2023-03-27T00:49:38.899Z,52.16
2023-03-27T00:54:41.599Z,51.24
2023-03-27T00:59:44.549Z,52.82
2023-03-27T01:04:47.600Z,52.99
2023-03-27T01:09:49.818Z,51.87
2023-03-27T01:15:00.791Z,52.25
2023-03-27T01:20:24.616Z,51.03
2023-03-27T01:25:56.762Z,50.83
2023-03-27T01:31:01.504Z,52.41
2023-03-27T01:36:21.362Z,52.99
2023-03-27T01:41:56.437Z,53.02
2023-03-27T01:47:21.663Z,50.44
2023-03-27T01:52:29.900Z,50.70
2023-03-27T01:57:48.933Z,50.30
2023-03-27T02:02:57.083Z,50.23
2023-03-27T02:08:17.228Z,49.42
2023-03-27T02:13:25.359Z,48.34
2023-03-27T02:18:36.801Z,50.01
2023-03-27T02:23:38.978Z,50.20
2023-03-27T02:29:00.909Z,50.87
2023-03-27T02:34:26.904Z,49.10
2023-03-27T02:39:40.686Z,49.33
2023-03-27T02:44:52.605Z,47.22
2023-03-27T02:50:00.616Z,48.42
2023-03-27T02:55:08.190Z,48.22
2023-03-27T03:00:18.482Z,49.09
2023-03-27T03:05:23.058Z,48.90
2023-03-27T03:10:26.353Z,49.39
2023-03-27T03:15:28.341Z,49.68
2023-03-27T03:20:29.923Z,50.69
2023-03-27T03:25:31.512Z,50.31
2023-03-27T03:30:33.335Z,50.82
2023-03-27T03:35:35.400Z,49.64
2023-03-27T03:40:37.377Z,49.71
2023-03-27T03:45:38.978Z,49.73
2023-03-27T03:50:40.625Z,47.66
2023-03-27T03:55:42.780Z,48.83
2023-03-27T04:00:44.644Z,47.61
2023-03-27T04:05:46.608Z,47.00
2023-03-27T04:10:48.400Z,44.02
2023-03-27T04:15:51.409Z,42.37
2023-03-27T04:20:54.462Z,40.96
2023-03-27T04:26:00.620Z,40.20
2023-03-27T04:31:06.501Z,39.79
2023-03-27T04:36:09.242Z,40.00
2023-03-27T04:41:11.348Z,39.86
2023-03-27T04:46:12.975Z,40.46
2023-03-27T04:51:14.534Z,40.63
2023-03-27T04:56:16.244Z,41.15
2023-03-27T05:01:17.901Z,41.03
2023-03-27T05:06:19.519Z,41.00
2023-03-27T05:11:21.292Z,41.24
2023-03-27T05:16:23.030Z,41.45
2023-03-27T05:21:24.790Z,41.17
2023-03-27T05:26:26.518Z,42.72
2023-03-27T05:31:31.406Z,43.34
2023-03-27T05:36:35.418Z,43.15
2023-03-27T05:41:36.970Z,43.38
2023-03-27T05:46:39.754Z,43.29
2023-03-27T05:51:47.029Z,42.60
2023-03-27T05:56:49.080Z,40.83
2023-03-27T06:01:50.748Z,40.26
2023-03-27T06:06:52.351Z,38.79
2023-03-27T06:11:53.933Z,40.13
2023-03-27T06:16:55.898Z,39.52
2023-03-27T06:21:57.489Z,41.15
2023-03-27T06:26:59.137Z,39.07
2023-03-27T06:32:01.763Z,39.79
2023-03-27T06:37:03.721Z,40.83
2023-03-27T06:42:05.600Z,43.55
2023-03-27T06:47:07.301Z,43.02
2023-03-27T06:52:08.922Z,44.00
2023-03-27T06:57:10.547Z,42.53
2023-03-27T07:02:12.780Z,41.71
2023-03-27T07:07:14.401Z,42.83
2023-03-27T07:12:16.086Z,43.19
2023-03-27T07:17:17.794Z,41.03
2023-03-27T07:22:19.789Z,41.42
2023-03-27T07:27:23.506Z,41.93
2023-03-27T07:32:36.296Z,40.96
2023-03-27T07:37:39.309Z,41.28
2023-03-27T07:42:45.331Z,41.24
2023-03-27T07:47:47.628Z,39.34
2023-03-27T07:52:49.738Z,39.56
2023-03-27T07:58:00.776Z,40.37
2023-03-27T08:03:14.349Z,38.96
2023-03-27T08:08:16.173Z,39.53
2023-03-27T08:13:18.375Z,38.34
2023-03-27T08:18:20.021Z,37.66
2023-03-27T08:23:21.589Z,38.17
2023-03-27T08:28:23.171Z,37.94
2023-03-27T08:33:27.665Z,37.46
2023-03-27T08:38:29.313Z,38.37
2023-03-27T08:43:45.071Z,36.90
2023-03-27T08:49:02.038Z,36.48
2023-03-27T08:54:08.531Z,37.24
2023-03-27T08:59:17.223Z,36.76
2023-03-27T09:04:41.293Z,37.46
2023-03-27T09:09:52.745Z,37.59
2023-03-27T09:15:14.001Z,36.35
2023-03-27T09:20:21.500Z,36.81
2023-03-27T09:25:29.012Z,35.90
2023-03-27T09:30:34.550Z,34.83
2023-03-27T09:35:38.783Z,34.68
2023-03-27T09:40:49.254Z,33.58
2023-03-27T09:45:54.524Z,33.67
2023-03-27T09:50:56.787Z,34.45
2023-03-27T09:56:03.328Z,32.90
2023-03-27T10:01:20.322Z,33.80
2023-03-27T10:06:45.948Z,34.28
2023-03-27T10:11:50.389Z,34.62
2023-03-27T10:16:52.523Z,33.60
2023-03-27T10:21:56.720Z,35.46
2023-03-27T10:27:05.459Z,34.46
2023-03-27T10:32:07.129Z,32.54
2023-03-27T10:37:27.966Z,31.93
2023-03-27T10:42:32.568Z,32.55
2023-03-27T10:47:34.815Z,33.36
2023-03-27T10:53:14.170Z,33.78
2023-03-27T10:58:35.322Z,33.77
2023-03-27T11:06:41.736Z,36.67
2023-03-27T11:11:56.152Z,36.04
2023-03-27T11:17:04.206Z,34.99
2023-03-27T11:22:15.283Z,35.71
2023-03-27T11:27:38.048Z,35.63
2023-03-27T11:33:01.993Z,36.85
2023-03-27T11:38:18.243Z,37.13
2023-03-27T11:43:22.203Z,36.61
2023-03-27T11:48:51.663Z,37.81
2023-03-27T11:53:56.357Z,36.52
2023-03-27T11:59:06.915Z,35.11
2023-03-27T12:04:39.248Z,36.49
2023-03-27T12:10:12.992Z,35.75
2023-03-27T12:15:39.370Z,36.96
2023-03-27T12:21:01.310Z,36.66
2023-03-27T12:26:21.924Z,36.48
2023-03-27T12:31:52.864Z,36.42
2023-03-27T12:36:55.440Z,36.64
2023-03-27T12:41:57.242Z,42.43
2023-03-27T12:47:14.439Z,44.94
2023-03-27T12:52:18.796Z,46.04
2023-03-27T12:57:25.061Z,45.96
2023-03-27T13:02:36.355Z,47.92
2023-03-27T13:07:38.055Z,45.12
2023-03-27T13:12:39.571Z,41.56
2023-03-27T13:17:51.584Z,44.14
2023-03-27T13:23:05.594Z,44.19
2023-03-27T13:28:39.630Z,42.50
2023-03-27T13:33:45.335Z,40.49
2023-03-27T13:38:52.949Z,38.63
2023-03-27T13:43:55.313Z,39.55
2023-03-27T13:49:21.211Z,38.59
2023-03-27T13:54:47.014Z,37.99
2023-03-27T13:59:57.713Z,39.51
2023-03-27T14:05:28.826Z,39.72
2023-03-27T14:10:55.460Z,42.53
2023-03-27T14:16:30.769Z,42.36
2023-03-27T14:21:49.877Z,42.15
2023-03-27T14:26:53.815Z,44.27
2023-03-27T14:32:02.546Z,42.31
2023-03-27T14:37:29.965Z,41.86
2023-03-27T14:42:33.174Z,40.56
2023-03-27T14:47:35.651Z,41.53
2023-03-27T14:52:37.633Z,40.28
2023-03-27T14:57:41.327Z,39.93
2023-03-27T15:05:32.705Z,43.68
2023-03-27T15:10:35.486Z,43.01
2023-03-27T15:15:42.823Z,44.32
2023-03-27T15:20:45.435Z,44.62
2023-03-27T15:25:57.082Z,42.46
2023-03-27T15:31:03.331Z,42.15
2023-03-27T15:36:11.149Z,41.35
2023-03-27T15:41:15.806Z,40.51
2023-03-27T15:46:20.457Z,41.97
2023-03-27T15:51:22.225Z,42.04
2023-03-27T15:56:41.252Z,44.71
2023-03-27T16:01:53.558Z,45.33
2023-03-27T16:07:18.444Z,46.06
2023-03-27T16:12:25.743Z,45.01
2023-03-27T16:17:37.742Z,45.67
2023-03-27T16:28:02.626Z,46.57
2023-03-27T16:33:15.484Z,45.10
2023-03-27T16:38:18.218Z,44.36
2023-03-27T16:43:19.785Z,44.72
2023-03-27T16:48:21.591Z,45.71
2023-03-27T16:53:23.150Z,45.07
2023-03-27T16:58:24.737Z,44.60
2023-03-27T17:03:26.360Z,43.45
2023-03-27T17:08:30.322Z,45.17
2023-03-27T17:13:32.331Z,45.21
2023-03-27T17:18:34.415Z,44.02
2023-03-27T17:23:36.398Z,42.54
2023-03-27T17:28:37.989Z,42.55
2023-03-27T17:33:39.539Z,43.09
2023-03-27T17:38:41.889Z,47.48
2023-03-27T17:43:46.683Z,46.92
2023-03-27T17:48:49.357Z,45.32
2023-03-27T17:53:51.193Z,48.48
2023-03-27T17:58:53.507Z,47.31
2023-03-27T18:03:55.464Z,45.48
2023-03-27T18:08:57.366Z,45.66
2023-03-27T18:13:59.079Z,50.57
2023-03-27T18:19:00.948Z,47.61
2023-03-27T18:24:02.523Z,49.22
2023-03-27T18:29:05.043Z,47.82
2023-03-27T18:34:08.168Z,46.84
2023-03-27T18:39:09.893Z,45.43
2023-03-27T18:44:12.706Z,44.41
2023-03-27T18:49:24.363Z,45.79
2023-03-27T18:54:27.029Z,46.62
2023-03-27T18:59:28.670Z,46.90
2023-03-27T19:04:30.682Z,46.23
2023-03-27T19:09:41.071Z,46.35
2023-03-27T19:14:43.532Z,46.23
2023-03-27T19:19:46.489Z,45.69
2023-03-27T19:24:48.328Z,45.79
2023-03-27T19:29:50.000Z,45.36
2023-03-27T19:34:51.666Z,46.42
2023-03-27T19:39:53.341Z,47.20
2023-03-27T19:44:55.665Z,48.87
2023-03-27T19:49:57.505Z,49.43
2023-03-27T19:54:59.221Z,50.82
2023-03-27T20:00:00.853Z,49.25
2023-03-27T20:05:02.518Z,47.21
2023-03-27T20:10:05.027Z,49.01
2023-03-27T20:15:12.273Z,47.94
2023-03-27T20:20:14.406Z,47.83
2023-03-27T20:25:16.155Z,46.33
2023-03-27T20:30:17.812Z,45.76
2023-03-27T20:35:24.329Z,49.07
2023-03-27T20:40:26.780Z,46.50
2023-03-27T20:45:30.989Z,47.80
2023-03-27T20:50:35.882Z,50.96
2023-03-27T20:55:43.797Z,47.28
2023-03-27T21:00:56.143Z,46.80
2023-03-27T21:05:58.517Z,46.02
2023-03-27T21:11:01.238Z,46.63
2023-03-27T21:16:04.270Z,46.47
2023-03-27T21:21:06.261Z,46.00
2023-03-27T21:26:08.004Z,46.19
2023-03-27T21:31:10.727Z,46.29
2023-03-27T21:36:13.361Z,46.03
2023-03-27T21:41:17.162Z,45.60
2023-03-27T21:46:18.876Z,45.07
2023-03-27T21:51:20.500Z,47.03
2023-03-27T21:56:22.095Z,47.60
2023-03-27T22:01:24.186Z,46.75
2023-03-27T22:06:26.044Z,46.03
2023-03-27T22:11:28.285Z,45.40
2023-03-27T22:16:30.083Z,46.10
2023-03-27T22:21:31.769Z,44.91
2023-03-27T22:26:36.829Z,44.95
2023-03-27T22:31:38.846Z,45.05
2023-03-27T22:36:40.829Z,46.07
2023-03-27T22:41:42.485Z,46.10
2023-03-27T22:46:44.136Z,45.95
2023-03-27T22:51:45.851Z,45.70
2023-03-27T22:56:47.885Z,45.15
2023-03-27T23:01:49.632Z,46.61
2023-03-27T23:06:51.505Z,45.74
2023-03-27T23:11:53.157Z,45.68
2023-03-27T23:16:54.758Z,45.18
2023-03-27T23:21:56.385Z,44.71
2023-03-27T23:26:57.953Z,45.38
2023-03-27T23:31:59.758Z,44.99
2023-03-27T23:37:01.333Z,45.58
2023-03-27T23:42:02.996Z,45.95
2023-03-27T23:47:05.320Z,44.98
2023-03-27T23:52:06.961Z,44.47
2023-03-27T23:57:08.747Z,44.95
